createdAt,value
2022-11-10T00:03:28.407Z,11.11
2022-11-10T00:08:48.581Z,11.12
2022-11-10T00:14:29.017Z,11.06
2022-11-10T00:19:49.224Z,11.04
2022-11-10T00:25:09.458Z,11.07
2022-11-10T00:30:29.844Z,11.04
2022-11-10T00:35:49.799Z,11.07
2022-11-10T00:41:10.034Z,11.10
2022-11-10T00:46:30.026Z,11.09
2022-11-10T00:51:50.124Z,11.11
2022-11-10T00:57:11.125Z,11.09
2022-11-10T01:02:31.262Z,11.05
2022-11-10T01:08:02.877Z,11.07
2022-11-10T01:13:29.787Z,11.10
2022-11-10T01:18:55.423Z,11.09
2022-11-10T01:24:19.349Z,11.12
2022-11-10T01:29:39.502Z,11.10
2022-11-10T01:34:59.873Z,11.06
2022-11-10T01:40:20.878Z,11.05
2022-11-10T01:45:41.469Z,11.06
2022-11-10T01:51:12.073Z,11.07
2022-11-10T01:56:36.213Z,11.01
2022-11-10T02:02:07.113Z,11.01
2022-11-10T02:07:28.091Z,10.99
2022-11-10T02:12:50.230Z,11.00
2022-11-10T02:18:10.431Z,10.98
2022-11-10T02:23:30.721Z,11.03
2022-11-10T02:28:50.953Z,11.12
2022-11-10T02:34:14.106Z,11.09
2022-11-10T02:39:34.503Z,11.07
2022-11-10T02:44:55.792Z,11.06
2022-11-10T02:50:21.013Z,11.09
2022-11-10T02:55:47.570Z,11.08
2022-11-10T03:01:20.210Z,11.12
2022-11-10T03:06:40.695Z,11.10
2022-11-10T03:12:01.064Z,11.10
2022-11-10T03:17:21.410Z,11.11
2022-11-10T03:22:41.412Z,11.13
2022-11-10T03:28:01.527Z,11.11
2022-11-10T03:33:22.193Z,11.15
2022-11-10T03:38:42.851Z,11.17
2022-11-10T03:44:02.940Z,11.15
2022-11-10T03:49:23.481Z,11.16
2022-11-10T03:54:43.511Z,11.22
2022-11-10T04:00:04.774Z,11.25
2022-11-10T04:05:48.123Z,11.26
2022-11-10T04:11:10.695Z,11.22
2022-11-10T04:16:30.773Z,11.19
2022-11-10T04:21:50.951Z,11.13
2022-11-10T04:27:11.354Z,11.10
2022-11-10T04:32:31.494Z,11.15
2022-11-10T04:37:51.865Z,11.10
2022-11-10T04:43:11.977Z,11.13
2022-11-10T04:48:33.225Z,11.11
2022-11-10T04:53:53.775Z,11.10
2022-11-10T04:59:14.016Z,11.14
2022-11-10T05:04:34.052Z,11.20
2022-11-10T05:09:54.251Z,11.15
2022-11-10T05:15:14.755Z,11.06
2022-11-10T05:20:35.166Z,10.56
2022-11-10T05:25:55.585Z,10.44
2022-11-10T05:31:16.094Z,10.32
2022-11-10T05:36:36.161Z,10.32
2022-11-10T05:41:56.195Z,10.28
2022-11-10T05:47:16.242Z,10.26
2022-11-10T05:52:43.449Z,10.21
2022-11-10T05:58:06.837Z,10.22
2022-11-10T06:03:27.622Z,10.26
2022-11-10T06:08:48.755Z,10.33
2022-11-10T06:14:08.721Z,10.33
2022-11-10T06:19:29.052Z,10.34
2022-11-10T06:24:49.136Z,10.38
2022-11-10T06:30:10.018Z,10.37
2022-11-10T06:35:30.878Z,10.39
2022-11-10T06:40:50.828Z,10.64
2022-11-10T06:46:10.914Z,10.88
2022-11-10T06:51:31.303Z,11.01
2022-11-10T06:56:51.673Z,11.06
2022-11-10T07:02:15.413Z,11.20
2022-11-10T07:07:35.526Z,11.21
2022-11-10T07:12:56.383Z,11.30
2022-11-10T07:18:16.873Z,11.32
2022-11-10T07:23:37.722Z,11.25
2022-11-10T07:28:58.164Z,11.21
2022-11-10T07:34:18.359Z,11.23
2022-11-10T07:39:38.425Z,11.23
2022-11-10T07:44:58.411Z,11.18
2022-11-10T07:50:18.996Z,11.15
2022-11-10T07:55:46.128Z,11.06
2022-11-10T08:01:29.647Z,10.93
2022-11-10T08:06:50.212Z,10.81
2022-11-10T08:12:10.443Z,10.80
2022-11-10T08:17:30.639Z,10.85
2022-11-10T08:22:58.782Z,10.90
2022-11-10T08:28:20.015Z,10.95
2022-11-10T08:33:40.293Z,11.01
2022-11-10T08:39:08.748Z,11.10
2022-11-10T08:44:44.336Z,11.23
2022-11-10T08:50:09.196Z,11.23
2022-11-10T08:55:36.987Z,11.33
2022-11-10T09:00:57.312Z,11.39
2022-11-10T09:06:18.403Z,11.49
2022-11-10T09:11:39.603Z,11.53
2022-11-10T09:17:00.092Z,11.59
2022-11-10T09:22:20.449Z,11.59
2022-11-10T09:27:41.033Z,11.56
2022-11-10T09:33:01.398Z,11.56
2022-11-10T09:38:21.944Z,11.52
2022-11-10T09:44:02.097Z,11.61
2022-11-10T09:49:25.111Z,11.65
2022-11-10T09:54:51.538Z,11.72
2022-11-10T10:00:18.020Z,11.82
2022-11-10T10:05:47.437Z,11.94
2022-11-10T10:11:33.553Z,11.99
2022-11-10T10:17:08.719Z,12.02
2022-11-10T10:22:55.610Z,12.04
2022-11-10T10:28:19.054Z,12.05
2022-11-10T10:33:39.841Z,12.03
2022-11-10T10:39:05.547Z,12.05
2022-11-10T10:44:26.064Z,12.08
2022-11-10T10:49:49.731Z,12.20
2022-11-10T10:55:13.149Z,12.24
2022-11-10T11:00:43.344Z,12.28
2022-11-10T11:06:17.627Z,12.33
2022-11-10T11:11:41.239Z,12.35
2022-11-10T11:17:19.496Z,12.31
2022-11-10T11:22:56.888Z,12.29
2022-11-10T11:28:20.761Z,12.20
2022-11-10T11:34:23.441Z,12.16
2022-11-10T11:40:38.326Z,12.17
2022-11-10T11:46:29.198Z,12.20
2022-11-10T11:52:14.661Z,12.26
2022-11-10T11:58:15.999Z,12.27
2022-11-10T12:03:44.035Z,12.25
2022-11-10T12:09:27.213Z,12.29
2022-11-10T12:15:43.425Z,12.19
2022-11-10T12:21:24.243Z,12.17
2022-11-10T12:26:45.400Z,12.06
2022-11-10T12:32:17.534Z,11.98
2022-11-10T12:37:44.423Z,11.99
2022-11-10T12:43:40.858Z,12.03
2022-11-10T12:49:17.558Z,12.07
2022-11-10T12:54:41.290Z,12.07
2022-11-10T13:00:32.423Z,12.19
2022-11-10T13:05:59.346Z,12.26
2022-11-10T13:11:31.220Z,12.27
2022-11-10T13:16:54.486Z,12.29
2022-11-10T13:22:36.996Z,12.36
2022-11-10T13:27:57.160Z,12.32
2022-11-10T13:33:24.689Z,12.26
2022-11-10T13:38:45.964Z,12.23
2022-11-10T13:44:21.785Z,12.18
2022-11-10T13:49:54.308Z,12.14
2022-11-10T13:55:27.794Z,12.17
2022-11-10T14:01:12.131Z,12.15
2022-11-10T14:06:48.477Z,12.19
2022-11-10T14:12:25.820Z,12.20
2022-11-10T14:17:58.197Z,12.21
2022-11-10T14:23:32.039Z,12.23
2022-11-10T14:28:55.198Z,12.26
2022-11-10T14:34:25.343Z,12.26
2022-11-10T14:39:46.513Z,12.27
2022-11-10T14:45:29.720Z,12.28
2022-11-10T14:50:55.601Z,12.29
2022-11-10T14:56:36.838Z,12.29
2022-11-10T15:02:00.595Z,12.31
2022-11-10T15:07:22.038Z,12.33
2022-11-10T15:13:05.555Z,12.30
2022-11-10T15:18:29.420Z,12.27
2022-11-10T15:24:03.372Z,12.28
2022-11-10T15:29:24.700Z,12.24
2022-11-10T15:34:45.732Z,12.22
2022-11-10T15:40:27.776Z,12.20
2022-11-10T15:45:53.149Z,12.22
2022-11-10T15:51:15.744Z,12.20
2022-11-10T15:56:38.677Z,12.13
2022-11-10T16:01:59.520Z,12.06
2022-11-10T16:07:21.408Z,12.12
2022-11-10T16:12:42.018Z,12.08
2022-11-10T16:18:02.674Z,12.07
2022-11-10T16:23:25.778Z,12.10
2022-11-10T16:28:47.844Z,12.09
2022-11-10T16:34:13.843Z,12.07
2022-11-10T16:39:45.643Z,12.10
2022-11-10T16:45:06.550Z,12.07
2022-11-10T16:50:32.071Z,12.06
2022-11-10T16:55:52.356Z,12.02
2022-11-10T17:01:34.161Z,11.98
2022-11-10T17:06:55.742Z,11.92
2022-11-10T17:12:16.240Z,11.89
2022-11-10T17:17:37.221Z,11.90
2022-11-10T17:22:57.953Z,11.86
2022-11-10T17:28:18.846Z,11.86
2022-11-10T17:33:40.254Z,11.78
2022-11-10T17:39:00.926Z,11.79
2022-11-10T17:44:21.181Z,11.77
2022-11-10T17:49:52.295Z,11.75
2022-11-10T17:55:21.675Z,11.69
2022-11-10T18:00:43.024Z,11.64
2022-11-10T18:06:06.449Z,11.57
2022-11-10T18:11:27.094Z,11.55
2022-11-10T18:16:47.490Z,11.54
2022-11-10T18:22:07.737Z,11.52
2022-11-10T18:27:29.141Z,11.51
2022-11-10T18:32:49.224Z,11.43
2022-11-10T18:38:15.483Z,11.40
2022-11-10T18:43:35.594Z,11.38
2022-11-10T18:48:56.214Z,11.38
2022-11-10T18:54:16.763Z,11.35
2022-11-10T18:59:40.211Z,11.37
2022-11-10T19:05:02.161Z,11.32
2022-11-10T19:10:22.673Z,11.33
2022-11-10T19:15:43.106Z,11.29
2022-11-10T19:21:10.998Z,11.27
2022-11-10T19:26:33.349Z,11.25
2022-11-10T19:31:53.691Z,11.30
2022-11-10T19:37:15.083Z,11.30
2022-11-10T19:42:35.596Z,11.31
2022-11-10T19:48:15.040Z,11.32
2022-11-10T19:54:05.782Z,11.34
2022-11-10T19:59:26.843Z,11.33
2022-11-10T20:05:08.021Z,11.34
2022-11-10T20:10:30.605Z,11.34
2022-11-10T20:16:22.667Z,11.36
2022-11-10T20:22:12.818Z,11.38
2022-11-10T20:27:34.617Z,11.41
2022-11-10T20:32:59.728Z,11.35
2022-11-10T20:38:20.035Z,11.34
2022-11-10T20:44:02.461Z,11.41
2022-11-10T20:49:31.937Z,11.36
2022-11-10T20:54:55.456Z,11.35
2022-11-10T21:00:29.409Z,11.40
2022-11-10T21:05:57.662Z,11.37
2022-11-10T21:11:40.536Z,11.33
2022-11-10T21:17:02.573Z,11.33
2022-11-10T21:22:30.110Z,11.33
2022-11-10T21:27:53.063Z,11.34
2022-11-10T21:33:13.777Z,11.32
2022-11-10T21:38:36.913Z,11.31
2022-11-10T21:43:59.440Z,11.23
2022-11-10T21:49:19.449Z,11.19
2022-11-10T21:54:40.103Z,11.20
2022-11-10T22:00:00.519Z,11.11
2022-11-10T22:05:20.684Z,11.17
2022-11-10T22:10:59.721Z,11.14
2022-11-10T22:16:44.279Z,11.07
2022-11-10T22:22:04.648Z,11.10
2022-11-10T22:27:24.830Z,11.11
2022-11-10T22:32:45.087Z,11.12
2022-11-10T22:38:06.534Z,11.08
2022-11-10T22:43:45.727Z,11.04
2022-11-10T22:49:09.667Z,11.04
2022-11-10T22:54:29.985Z,11.06
2022-11-10T22:59:50.432Z,11.04
2022-11-10T23:05:10.890Z,11.08
2022-11-10T23:10:31.297Z,11.07
2022-11-10T23:15:54.189Z,11.10
2022-11-10T23:21:16.687Z,11.11
2022-11-10T23:26:36.781Z,11.13
2022-11-10T23:31:57.276Z,11.10
2022-11-10T23:37:17.576Z,11.11
2022-11-10T23:42:37.692Z,11.12
2022-11-10T23:47:57.803Z,11.15
2022-11-10T23:53:19.219Z,11.14
2022-11-10T23:58:39.853Z,11.12
